Los Coches (243) Station Data

Red Flag Warning: No
Fire Weather Zone: 250
SDGE Region: Eastern
Lat/Lon: 32.852/-116.895

Observations

Time Wind Speed/Gust Temp(F) RH Fuel Moist Fuel Temp(F) Dewpt(F) Tmax(F) Tmin(F) Accum Precip 10-min Precip SL Press(mb)
5/24 8:30am 272 5 G 8 61° 87% - - 57° 62° 56.3° - - 913.0
5/24 8:20am 258 5 G 8 60° 89% - - 57° 62° 56.3° - - 914.0
5/24 8:10am 25 4 G 7 60° 90% - - 57° 62° 56.3° - - 914.0
5/24 8:00am 21 5 G 7 59° 92% - - 57° 62° 56.3° - - 915.0
5/24 7:50am 38 2 G 5 59° 93% - - 57° 62° 56.3° - - 916.0
5/24 7:40am 19 4 G 6 59° 94% - - 57° 62° 56.3° - - 916.0
5/24 7:30am 97 2 G 5 58° 95% - - 57° 62° 56.3° - - 917.0
5/24 7:20am 132 1 G 3 58° 95% - - 57° 62° 56.3° - - 917.0
5/24 7:10am 93 3 G 4 58° 96% - - 57° 62° 56.3° - - 917.0
5/24 7:00am 61 2 G 5 58° 96% - - 57° 62° 56.3° - - 917.0
5/24 6:50am 129 1 G 4 58° 96% - - 56° 62° 56.3° - - 917.0
5/24 6:40am 180 2 G 4 57° 96% - - 56° 62° 56.3° - - 917.0
5/24 6:30am 187 3 G 7 57° 96% - - 56° 62° 56.3° - - 918.0
5/24 6:20am 192 2 G 5 57° 96% - - 56° 62° 56.3° - - 918.0
5/24 6:10am 215 4 G 9 57° 96% - - 56° 62° 56.4° - - 918.0
5/24 6:00am 216 5 G 9 57° 96% - - 56° 62° 56.4° - - 918.0
5/24 5:50am 217 5 G 8 57° 96% - - 56° 62° 56.4° - - 918.0
5/24 5:40am 198 1 G 2 57° 96% - - 56° 62° 56.5° - - 919.0
5/24 5:30am 317 1 G 3 57° 96% - - 56° 62° 56.5° - - 919.0
5/24 5:20am 32 3 G 4 57° 96% - - 56° 62° 57° - - 919.0
5/24 5:10am 35 4 G 6 57° 96% - - 56° 62° 57° - - 919.0
5/24 5:00am 48 4 G 7 57° 96% - - 56° 62° 57° - - 919.0
5/24 4:50am 58 6 G 8 58° 96% - - 56° 62° 57° - - 919.0
5/24 4:40am 49 5 G 8 58° 96% - - 57° 62° 57° - - 920.0
5/24 4:30am 57 5 G 7 58° 95% - - 57° 62° 57° - - 920.0
5/24 4:20am 47 2 G 4 58° 95% - - 57° 62° 57° - - 920.0
5/24 4:10am 319 1 G 2 58° 95% - - 57° 62° 57° - - 920.0
5/24 4:00am 1 2 G 4 58° 95% - - 57° 62° 57° - - 920.0
5/24 3:50am 324 2 G 3 58° 95% - - 57° 62° 57° - - 921.0
5/24 3:40am 296 1 G 2 58° 95% - - 57° 62° 57° - - 921.0
5/24 3:30am 334 2 G 3 58° 95% - - 56° 62° 57° - - 921.0
5/24 3:20am 321 2 G 4 58° 94% - - 56° 62° 57° - - 921.0
5/24 3:10am 264 2 G 4 58° 94% - - 56° 62° 57° - - 921.0
5/24 3:00am 226 3 G 4 58° 94% - - 56° 62° 57° - - 921.0
5/24 2:50am 266 2 G 3 57° 94% - - 55° 62° 57° - - 921.0
5/24 2:40am 314 2 G 3 57° 93% - - 55° 62° 57° - - 921.0
5/24 2:30am 311 2 G 3 57° 92% - - 55° 62° 57.2° - - 921.0
5/24 2:20am 309 2 G 3 58° 92% - - 55° 62° 57.5° - - 921.0
5/24 2:10am 313 2 G 2 58° 91% - - 56° 62° 58° - - 922.0
5/24 2:00am 313 1 G 2 59° 91% - - 56° 62° 58.2° - - 922.0
5/24 1:50am 226 1 G 2 59° 90% - - 56° 62° 58.8° - - 922.0
5/24 1:40am 269 2 G 3 59° 90% - - 56° 62° 59° - - 922.0
5/24 1:30am 262 3 G 4 59° 89% - - 56° 62° 59.2° - - 922.0
5/24 1:20am 276 3 G 4 60° 88% - - 56° 62° 59.6° - - 922.0
5/24 1:10am 311 2 G 3 60° 84% - - 55° 62° 60° - - 921.0
5/24 1:00am 314 2 G 3 61° 83% - - 55° 62° 60.4° - - 921.0
5/24 12:50am 299 1 G 2 61° 82% - - 55° 62° 60.8° - - 921.0
5/24 12:40am 352 1 G 2 61° 82% - - 56° 62° 60.8° - - 921.0
5/24 12:30am 351 2 G 3 61° 82% - - 56° 62° 60.8° - - 922.0
5/24 12:20am 338 3 G 5 61° 81% - - 56° 62° 60.8° - - 922.0
5/24 12:10am 282 3 G 5 62° 80% - - 56° 62° 61.4° - - 922.0
5/24 12:00am 233 4 G 7 62° 79% - - 55° 87.5° 55.7° - - 922.0
5/23 11:50pm 226 5 G 8 63° 77% - - 55° 87.5° 55.7° - - 921.0
5/23 11:40pm 219 3 G 6 63° 75% - - 55° 87.5° 55.7° - - 920.0
5/23 11:30pm 223 3 G 6 64° 73% - - 55° 87.5° 55.7° - - 920.0
5/23 11:20pm 223 3 G 6 64° 71% - - 55° 87.5° 55.7° - - 919.0
5/23 11:10pm 259 3 G 4 65° 69% - - 54° 87.5° 55.7° - - 919.0
5/23 11:00pm 285 3 G 4 65° 68% - - 54° 87.5° 55.7° - - 919.0
5/23 10:50pm 296 3 G 4 66° 67% - - 54° 87.5° 55.7° - - 918.0
5/23 10:40pm 313 3 G 4 66° 65% - - 54° 87.5° 55.7° - - 918.0
5/23 10:30pm 296 2 G 3 67° 64% - - 54° 87.5° 55.7° - - 918.0
5/23 10:20pm 310 2 G 3 67° 64% - - 54° 87.5° 55.7° - - 918.0
5/23 10:10pm 307 3 G 3 67° 63% - - 54° 87.5° 55.7° - - 918.0
5/23 10:00pm 296 2 G 3 68° 62% - - 54° 87.5° 55.7° - - 918.0
5/23 9:50pm 326 2 G 3 68° 62% - - 54° 87.5° 55.7° - - 918.0
5/23 9:40pm 317 2 G 3 68° 61% - - 54° 87.5° 55.7° - - 918.0
5/23 9:30pm 301 2 G 3 69° 60% - - 55° 87.5° 55.7° - - 918.0
5/23 9:20pm 239 2 G 5 69° 60% - - 55° 87.5° 55.7° - - 918.0
5/23 9:10pm 216 4 G 7 70° 59% - - 55° 87.5° 55.7° - - 918.0
5/23 9:00pm 222 5 G 8 70° 58% - - 55° 87.5° 55.7° - - 918.0
5/23 8:50pm 215 3 G 6 71° 57% - - 55° 87.5° 55.7° - - 918.0
5/23 8:40pm 193 2 G 5 71° 55% - - 54° 87.5° 55.7° - - 917.0
5/23 8:30pm 214 3 G 5 72° 53% - - 54° 87.5° 55.7° - - 917.0
5/23 8:20pm 230 3 G 5 72° 51% - - 53° 87.5° 55.7° - - 916.0
5/23 8:10pm 260 4 G 5 73° 49% - - 53° 87.5° 55.7° - - 915.0
5/23 8:00pm 262 4 G 6 73° 49% - - 53° 87.5° 55.7° - - 915.0
5/23 7:50pm 265 4 G 5 74° 47% - - 53° 87.5° 55.7° - - 915.0
5/23 7:40pm 258 4 G 6 75° 46% - - 53° 87.5° 55.7° - - 914.0
5/23 7:30pm 268 4 G 6 76° 44% - - 52° 87.5° 55.7° - - 914.0
5/23 7:20pm 273 4 G 6 76° 44% - - 53° 87.5° 55.7° - - 914.0
5/23 7:10pm 278 4 G 7 77° 43% - - 52° 87.5° 55.7° - - 914.0
5/23 7:00pm 237 3 G 6 78° 41% - - 52° 87.5° 55.7° - - 913.0
5/23 6:50pm 215 4 G 9 78° 40% - - 52° 87.5° 55.7° - - 913.0
5/23 6:40pm 223 6 G 10 79° 39% - - 52° 87.5° 55.7° - - 912.0
5/23 6:30pm 213 6 G 11 80° 37% - - 51° 87.5° 55.7° - - 911.0
5/23 6:20pm 247 6 G 11 81° 36% - - 51° 87.5° 55.7° - - 911.0
5/23 6:10pm 219 5 G 11 81° 36% - - 51° 87.5° 55.7° - - 911.0
5/23 6:00pm 207 5 G 10 81° 37% - - 52° 87.5° 55.7° - - 912.0
5/23 5:50pm 233 7 G 12 83° 31% - - 49° 87.5° 55.7° - - 908.0
5/23 5:40pm 244 7 G 12 84° 29% - - 48° 87.5° 55.7° - - 906.0
5/23 5:30pm 244 6 G 12 85° 27% - - 47° 87.5° 55.7° - - 905.0
5/23 5:20pm 247 6 G 9 85° 26% - - 46° 87.5° 55.7° - - 904.0
5/23 5:10pm 237 4 G 10 86° 25% - - 46° 87.5° 55.7° - - 903.0
5/23 5:00pm 249 4 G 8 85° 25% - - 46° 87.5° 55.7° - - 903.0
5/23 4:50pm 222 2 G 5 85° 27% - - 47° 87.5° 55.7° - - 903.0
5/23 4:40pm 227 2 G 7 84° 28% - - 47° 87.5° 55.7° - - 903.0
5/23 4:30pm 268 3 G 8 85° 29% - - 49° 87.5° 55.7° - - 903.0
5/23 4:20pm 224 3 G 6 84° 30% - - 49° 87.5° 55.7° - - 904.0
5/23 4:10pm 246 4 G 9 83° 31% - - 49° 87.5° 55.7° - - 904.0
5/23 4:00pm 283 3 G 8 83° 32% - - 50° 87.5° 55.7° - - 904.0
5/23 3:50pm 234 4 G 8 83° 33% - - 51° 87.5° 55.7° - - 904.0
5/23 3:40pm 284 3 G 8 82° 34% - - 50° 87.5° 55.7° - - 904.0
5/23 3:30pm 290 3 G 8 81° 37% - - 53° 87.5° 55.7° - - 906.0
5/23 3:20pm 297 4 G 7 80° 41% - - 54° 87.5° 55.7° - - 907.0
5/23 3:10pm 312 3 G 7 79° 43% - - 55° 87.5° 55.7° - - 908.0
5/23 3:00pm 222 4 G 8 79° 44% - - 55° 87.5° 55.7° - - 908.0
5/23 2:50pm 264 4 G 8 78° 45% - - 55° 87.5° 55.7° - - 909.0
5/23 2:40pm 277 5 G 8 78° 46% - - 56° 87.5° 55.7° - - 910.0
5/23 2:30pm 271 5 G 11 77° 47% - - 56° 87.5° 55.7° - - 910.0
5/23 2:20pm 273 6 G 9 77° 47% - - 56° 87.5° 55.7° - - 910.0
5/23 2:10pm 282 5 G 11 78° 47% - - 56° 87.5° 55.7° - - 910.0
5/23 2:00pm 252 6 G 12 77° 48% - - 56° 87.5° 55.7° - - 910.0
5/23 1:50pm 282 6 G 13 76° 49% - - 56° 87.5° 55.7° - - 911.0
5/23 1:40pm 267 8 G 13 77° 48% - - 56° 87.5° 55.7° - - 910.0
5/23 1:30pm 257 6 G 12 77° 48% - - 56° 87.5° 55.7° - - 910.0
5/23 1:20pm 256 7 G 14 77° 48% - - 56° 87.5° 55.7° - - 911.0
5/23 1:10pm 276 8 G 14 77° 48% - - 56° 87.5° 55.7° - - 911.0
5/23 1:00pm 268 8 G 14 77° 49% - - 56° 87.5° 55.7° - - 911.0
5/23 12:50pm 273 8 G 13 77° 48% - - 56° 87.5° 55.7° - - 911.0
5/23 12:40pm 271 9 G 15 77° 48% - - 56° 87.5° 55.7° - - 911.0
5/23 12:30pm 264 10 G 15 78° 47% - - 56° 87.5° 55.7° - - 911.0
5/23 12:20pm 272 9 G 15 79° 47% - - 56° 87.5° 55.7° - - 911.0
5/23 12:10pm 278 10 G 16 80° 44% - - 56° 87.5° 55.7° - - 909.0
5/23 12:00pm 272 10 G 17 81° 41% - - 55° 87.5° 55.7° - - 908.0
5/23 11:50am 260 7 G 13 84° 37% - - 55° 87.5° 55.7° - - 906.0
5/23 11:40am 277 9 G 14 86° 29% - - 49° 87.5° 55.7° - - 901.0
5/23 11:30am 256 5 G 12 87° 24% - - 45° 87.5° 55.7° - - 898.0
5/23 11:20am 206 4 G 8 86° 23% - - 44° 87° 55.7° - - 897.0
5/23 11:10am 233 3 G 7 85° 27% - - 48° 86.1° 55.7° - - 899.0
5/23 11:00am 284 4 G 8 84° 30% - - 49° 85° 55.7° - - 900.0
5/23 10:50am 286 5 G 9 84° 29% - - 48° 84.5° 55.7° - - 899.0
5/23 10:40am 294 4 G 8 82° 30% - - 48° 83.1° 55.7° - - 900.0
5/23 10:30am 269 3 G 6 82° 32% - - 49° 82.6° 55.7° - - 900.0
5/23 10:20am 333 2 G 4 81° 34% - - 50° 81.9° 55.7° - - 901.0
5/23 10:10am 348 2 G 5 80° 36% - - 51° 80.9° 55.7° - - 901.0
5/23 10:00am 15 2 G 3 78° 37% - - 50° 79.2° 55.7° - - 901.0
5/23 9:50am 11 2 G 4 76° 43% - - 52° 77.3° 55.7° - - 903.0
5/23 9:40am 16 2 G 5 75° 48% - - 54° 75.7° 55.7° - - 905.0
5/23 9:30am 28 2 G 4 73° 51% - - 54° 74.2° 55.7° - - 906.0
5/23 9:20am 0 2 G 4 72° 53% - - 54° 72.7° 55.7° - - 907.0
5/23 9:10am 17 2 G 5 72° 56% - - 55° 72.5° 55.7° - - 907.0
5/23 9:00am 4 2 G 4 69° 63% - - 56° 70.2° 55.7° - - 909.0
5/23 8:50am 359 2 G 4 68° 67% - - 56° 68.2° 55.7° - - 910.0
5/23 8:40am 37 2 G 3 66° 72% - - 56° 67.1° 55.7° - - 912.0
5/23 8:30am 16 3 G 4 64° 79% - - 57° 64.9° 55.7° - - 914.0
5/23 8:20am 27 3 G 5 62° 83% - - 57° 62.8° 55.7° - - 916.0
5/23 8:10am 22 3 G 4 61° 89% - - 58° 61.6° 55.7° - - 918.0
5/23 8:00am 62 2 G 4 60° 93% - - 58° 61.6° 55.7° - - 920.0
5/23 7:50am 40 1 G 2 59° 94% - - 57° 61.6° 55.7° - - 920.0
5/23 7:40am 166 2 G 2 58° 94% - - 56° 61.6° 55.7° - - 920.0
5/23 7:30am 261 1 G 2 58° 94% - - 56° 61.6° 55.7° - - 921.0
5/23 7:20am 353 2 G 3 57° 95% - - 56° 61.6° 55.7° - - 921.0
5/23 7:10am 303 2 G 2 57° 94% - - 55° 61.6° 55.7° - - 921.0
5/23 7:00am 321 2 G 3 57° 94% - - 56° 61.6° 55.7° - - 921.0
5/23 6:50am 348 2 G 3 57° 95% - - 55° 61.6° 55.7° - - 921.0
5/23 6:40am 283 1 G 2 56° 94% - - 55° 61.6° 55.7° - - 921.0
5/23 6:30am 299 1 G 1 56° 94% - - 54° 61.6° 55.7° - - 922.0
5/23 6:20am 309 1 G 2 56° 94% - - 54° 61.6° 55.7° - - 922.0
5/23 6:10am 331 2 G 3 56° 94% - - 54° 61.6° 55.7° - - 922.0
5/23 6:00am 201 1 G 3 56° 94% - - 54° 61.6° 56° - - 922.0